Time;durP1;ratioP1;P1;durP2;ratioP2;P2;SDS_P1;SDS_P2;PMS_P1;PMS_P2;Temp;Humidity;BMP_temperature;BMP_pressure;BME280_temperature;BME280_humidity;BME280_pressure;Samples;Min_cycle;Max_cycle;Signal;HPM_P1;HPM_P2
2024/03/08 00:00:09;;;;;;;13.90;10.70;;;;;;;;;;5011637;28;20194;-53
2024/03/08 00:02:42;;;;;;;13.97;11.30;;;;;;;;;;5015207;28;20560;-53
2024/03/08 00:05:09;;;;;;;11.60;10.40;;;;;;;;;;5012794;28;20228;-53
2024/03/08 00:07:35;;;;;;;11.50;10.30;;;;;;;;;;5020283;28;20268;-53
2024/03/08 00:10:02;;;;;;;12.40;11.00;;;;;;;;;;5013703;28;20503;-53
2024/03/08 00:12:28;;;;;;;12.97;11.57;;;;;;;;;;5018872;28;20509;-53
2024/03/08 00:14:54;;;;;;;11.80;10.60;;;;;;;;;;5016477;28;20515;-53
2024/03/08 00:17:25;;;;;;;14.10;10.90;;;;;;;;;;5016929;28;20272;-53
2024/03/08 00:19:51;;;;;;;14.03;10.80;;;;;;;;;;5013431;28;20167;-53
2024/03/08 00:22:19;;;;;;;14.37;10.60;;;;;;;;;;5022774;28;20177;-53
2024/03/08 00:24:45;;;;;;;12.87;10.90;;;;;;;;;;5008053;28;20162;-53
2024/03/08 00:27:12;;;;;;;13.67;10.17;;;;;;;;;;5018220;28;20184;-53
2024/03/08 00:29:41;;;;;;;13.83;10.77;;;;;;;;;;5017568;28;20198;-53
2024/03/08 00:32:10;;;;;;;11.70;9.90;;;;;;;;;;5022945;28;20184;-53
2024/03/08 00:34:36;;;;;;;13.50;10.47;;;;;;;;;;5016425;28;20657;-54
2024/03/08 00:37:03;;;;;;;15.57;10.97;;;;;;;;;;5021838;28;20177;-53
2024/03/08 00:39:29;;;;;;;13.00;10.47;;;;;;;;;;5020834;28;20820;-53
2024/03/08 00:41:55;;;;;;;13.70;10.63;;;;;;;;;;5015813;28;20186;-53
2024/03/08 00:44:21;;;;;;;12.80;10.80;;;;;;;;;;5020964;28;20182;-53
2024/03/08 00:46:47;;;;;;;13.23;11.07;;;;;;;;;;5014313;28;20178;-53
2024/03/08 00:49:13;;;;;;;13.10;11.20;;;;;;;;;;5024100;28;20660;-53
2024/03/08 00:51:39;;;;;;;16.03;11.90;;;;;;;;;;5023483;28;20205;-53
2024/03/08 00:54:05;;;;;;;12.63;10.77;;;;;;;;;;5015365;28;20605;-53
2024/03/08 00:56:33;;;;;;;12.37;11.07;;;;;;;;;;5017675;28;20228;-54
2024/03/08 00:59:00;;;;;;;12.93;11.03;;;;;;;;;;5021820;28;20170;-53
2024/03/08 01:01:26;;;;;;;13.37;11.33;;;;;;;;;;5020454;28;20185;-53
2024/03/08 01:03:52;;;;;;;13.47;10.83;;;;;;;;;;5026195;28;20178;-53
2024/03/08 01:06:18;;;;;;;12.07;10.67;;;;;;;;;;5018281;28;20662;-53
2024/03/08 01:08:44;;;;;;;12.77;10.93;;;;;;;;;;5014913;28;20201;-53
2024/03/08 01:11:11;;;;;;;15.07;11.57;;;;;;;;;;5019850;28;20171;-53
2024/03/08 01:13:37;;;;;;;15.27;11.70;;;;;;;;;;5023822;28;20344;-53
2024/03/08 01:16:03;;;;;;;14.43;11.93;;;;;;;;;;5017053;28;20273;-53
2024/03/08 01:18:30;;;;;;;14.53;11.30;;;;;;;;;;5019053;28;20233;-53
2024/03/08 01:20:56;;;;;;;14.90;11.57;;;;;;;;;;5014608;28;20658;-53
2024/03/08 01:23:22;;;;;;;16.87;10.80;;;;;;;;;;5021649;28;20607;-53
2024/03/08 01:25:52;;;;;;;12.17;10.90;;;;;;;;;;5016884;28;20193;-53
2024/03/08 01:28:18;;;;;;;14.67;12.17;;;;;;;;;;5022866;28;20198;-53
2024/03/08 01:30:45;;;;;;;15.60;11.33;;;;;;;;;;5017448;28;20697;-54
2024/03/08 01:33:11;;;;;;;11.93;10.37;;;;;;;;;;5021445;28;20590;-53
2024/03/08 01:35:37;;;;;;;13.67;12.23;;;;;;;;;;5019108;28;20596;-53
2024/03/08 01:38:04;;;;;;;14.50;11.67;;;;;;;;;;5026644;28;20196;-54
2024/03/08 01:40:30;;;;;;;14.20;10.97;;;;;;;;;;5025553;28;20297;-54
2024/03/08 01:42:56;;;;;;;14.00;11.50;;;;;;;;;;5021849;28;20628;-53
2024/03/08 01:45:22;;;;;;;13.80;11.53;;;;;;;;;;5019324;28;20182;-53
2024/03/08 01:47:49;;;;;;;15.60;11.93;;;;;;;;;;5018846;28;20209;-53
2024/03/08 01:50:15;;;;;;;14.50;11.90;;;;;;;;;;5020883;28;20197;-53
2024/03/08 01:52:42;;;;;;;15.43;12.67;;;;;;;;;;5016954;28;20463;-53
2024/03/08 01:55:09;;;;;;;12.57;10.90;;;;;;;;;;5011605;28;20270;-53
2024/03/08 01:57:35;;;;;;;14.93;12.03;;;;;;;;;;5022065;28;20630;-53
2024/03/08 02:00:04;;;;;;;17.87;13.07;;;;;;;;;;5020295;28;20452;-53
2024/03/08 02:02:32;;;;;;;15.23;11.80;;;;;;;;;;5018143;28;20692;-53
2024/03/08 02:04:58;;;;;;;16.10;12.53;;;;;;;;;;5019667;28;20486;-53
2024/03/08 02:07:24;;;;;;;12.57;11.27;;;;;;;;;;5015214;28;20186;-53
2024/03/08 02:09:51;;;;;;;13.23;11.03;;;;;;;;;;5013798;28;20220;-53
2024/03/08 02:12:20;;;;;;;14.30;11.93;;;;;;;;;;5018015;28;20760;-53
2024/03/08 02:14:46;;;;;;;13.13;11.03;;;;;;;;;;5021476;28;20173;-53
2024/03/08 02:17:13;;;;;;;16.23;11.10;;;;;;;;;;5017829;28;20192;-53
2024/03/08 02:19:39;;;;;;;15.53;11.70;;;;;;;;;;5015072;28;20238;-53
2024/03/08 02:22:06;;;;;;;14.00;11.57;;;;;;;;;;5014918;28;20661;-53
2024/03/08 02:24:33;;;;;;;13.80;11.23;;;;;;;;;;5020941;28;20209;-53
2024/03/08 02:26:59;;;;;;;15.43;11.10;;;;;;;;;;5017247;28;20182;-53
2024/03/08 02:29:25;;;;;;;12.93;11.23;;;;;;;;;;5017290;28;20288;-53
2024/03/08 02:31:52;;;;;;;15.50;10.97;;;;;;;;;;5018046;28;20197;-53
2024/03/08 02:34:18;;;;;;;13.43;11.57;;;;;;;;;;5013554;28;20241;-53
2024/03/08 02:36:44;;;;;;;14.57;11.33;;;;;;;;;;5019237;28;20649;-53
2024/03/08 02:39:10;;;;;;;13.60;11.37;;;;;;;;;;5016398;28;20265;-53
2024/03/08 02:41:36;;;;;;;15.87;11.63;;;;;;;;;;5021868;28;20718;-53
2024/03/08 02:44:03;;;;;;;16.53;12.07;;;;;;;;;;5019324;28;20213;-53
2024/03/08 02:46:30;;;;;;;12.33;10.57;;;;;;;;;;5020804;28;20209;-53
2024/03/08 02:48:56;;;;;;;16.70;11.00;;;;;;;;;;5015114;28;20206;-53
2024/03/08 02:51:22;;;;;;;11.63;10.33;;;;;;;;;;5016499;28;20143;-53
2024/03/08 02:53:51;;;;;;;13.60;11.07;;;;;;;;;;5018584;28;20235;-53
2024/03/08 02:56:17;;;;;;;15.13;12.43;;;;;;;;;;5015765;28;20466;-53
2024/03/08 02:58:48;;;;;;;13.50;11.67;;;;;;;;;;5015003;28;20500;-53
2024/03/08 03:01:14;;;;;;;15.50;12.23;;;;;;;;;;5017772;28;20205;-53
2024/03/08 03:03:40;;;;;;;14.93;11.87;;;;;;;;;;5020517;28;20182;-53
2024/03/08 03:06:07;;;;;;;14.00;11.85;;;;;;;;;;5015920;28;20591;-53
2024/03/08 03:08:33;;;;;;;15.13;11.43;;;;;;;;;;5016148;28;20243;-53
2024/03/08 03:10:59;;;;;;;13.60;11.40;;;;;;;;;;5009666;28;20186;-53
2024/03/08 03:13:25;;;;;;;14.57;11.33;;;;;;;;;;5020356;28;20579;-53
2024/03/08 03:15:51;;;;;;;14.07;11.43;;;;;;;;;;5015283;28;20216;-53
2024/03/08 03:18:21;;;;;;;12.13;10.83;;;;;;;;;;5013915;28;20606;-53
2024/03/08 03:20:47;;;;;;;13.83;11.20;;;;;;;;;;5012265;28;20279;-53
2024/03/08 03:23:20;;;;;;;14.13;11.13;;;;;;;;;;5017004;28;20237;-54
2024/03/08 03:25:46;;;;;;;14.43;11.77;;;;;;;;;;5007119;28;20596;-53
2024/03/08 03:28:17;;;;;;;14.90;11.27;;;;;;;;;;5012984;28;20633;-53
2024/03/08 03:30:43;;;;;;;14.23;12.43;;;;;;;;;;5014553;28;20193;-53
2024/03/08 03:33:10;;;;;;;13.93;11.97;;;;;;;;;;5019267;28;20184;-53
2024/03/08 03:35:39;;;;;;;16.30;12.00;;;;;;;;;;5020718;28;20178;-52
2024/03/08 03:38:08;;;;;;;15.10;11.60;;;;;;;;;;5018451;28;20181;-51
2024/03/08 03:40:34;;;;;;;12.97;11.53;;;;;;;;;;5022198;28;20181;-52
2024/03/08 03:43:01;;;;;;;14.23;11.97;;;;;;;;;;5009334;28;20693;-51
2024/03/08 03:45:27;;;;;;;16.17;12.43;;;;;;;;;;5015826;28;20670;-51
2024/03/08 03:47:53;;;;;;;13.97;11.23;;;;;;;;;;5017399;28;20281;-52
2024/03/08 03:50:19;;;;;;;16.23;12.20;;;;;;;;;;5021930;28;20580;-51
2024/03/08 03:52:46;;;;;;;14.70;11.30;;;;;;;;;;5015340;28;20181;-51
2024/03/08 03:55:13;;;;;;;16.27;12.20;;;;;;;;;;5019259;28;20719;-51
2024/03/08 03:57:39;;;;;;;14.03;11.60;;;;;;;;;;5012401;28;20170;-51
2024/03/08 04:00:06;;;;;;;19.00;11.90;;;;;;;;;;5016455;28;20224;-52
2024/03/08 04:02:32;;;;;;;13.10;11.47;;;;;;;;;;5014619;28;20258;-52
2024/03/08 04:04:58;;;;;;;17.23;12.90;;;;;;;;;;5021398;28;20762;-52
2024/03/08 04:07:24;;;;;;;17.43;12.73;;;;;;;;;;5014977;28;20180;-51
2024/03/08 04:09:50;;;;;;;17.93;12.50;;;;;;;;;;5018001;28;20676;-52
2024/03/08 04:12:16;;;;;;;18.23;12.57;;;;;;;;;;5028200;28;20228;-52
2024/03/08 04:14:43;;;;;;;14.90;12.13;;;;;;;;;;5016249;28;20191;-52
2024/03/08 04:17:09;;;;;;;16.60;13.23;;;;;;;;;;5028443;28;20389;-51
2024/03/08 04:19:35;;;;;;;16.10;12.03;;;;;;;;;;5016243;28;20175;-52
2024/03/08 04:22:02;;;;;;;15.80;12.20;;;;;;;;;;5019929;28;20249;-52
2024/03/08 04:24:28;;;;;;;15.97;12.30;;;;;;;;;;5022673;28;20257;-52
2024/03/08 04:26:54;;;;;;;17.50;12.57;;;;;;;;;;5026537;28;20701;-51
2024/03/08 04:29:21;;;;;;;17.03;13.20;;;;;;;;;;5018366;28;20565;-52
2024/03/08 04:31:47;;;;;;;17.33;12.77;;;;;;;;;;5011653;28;20626;-52
2024/03/08 04:34:14;;;;;;;16.53;13.03;;;;;;;;;;5016924;28;20183;-51
2024/03/08 04:36:40;;;;;;;15.53;12.10;;;;;;;;;;5021348;28;20170;-51
2024/03/08 04:39:12;;;;;;;15.87;12.83;;;;;;;;;;5018345;28;20218;-51
2024/03/08 04:41:38;;;;;;;14.83;12.30;;;;;;;;;;5021571;28;20177;-51
2024/03/08 04:44:04;;;;;;;15.03;11.80;;;;;;;;;;5021259;28;20229;-52
2024/03/08 04:46:30;;;;;;;15.67;12.30;;;;;;;;;;5015533;28;20263;-51
2024/03/08 04:48:56;;;;;;;14.90;12.40;;;;;;;;;;5027962;28;20289;-51
2024/03/08 04:51:23;;;;;;;14.57;12.23;;;;;;;;;;5019641;28;20567;-51
2024/03/08 04:53:49;;;;;;;17.77;12.60;;;;;;;;;;5022727;28;20655;-51
2024/03/08 04:56:15;;;;;;;17.67;13.30;;;;;;;;;;5020241;28;20194;-51
2024/03/08 04:58:42;;;;;;;15.47;12.23;;;;;;;;;;5018944;28;20186;-51
2024/03/08 05:01:10;;;;;;;18.13;13.00;;;;;;;;;;5013444;28;20178;-52
2024/03/08 05:03:36;;;;;;;16.87;12.70;;;;;;;;;;5018011;28;20549;-51
2024/03/08 05:06:02;;;;;;;16.73;13.30;;;;;;;;;;5025817;28;20256;-51
2024/03/08 05:08:28;;;;;;;15.90;11.93;;;;;;;;;;5022658;28;20233;-51
2024/03/08 05:10:54;;;;;;;18.07;13.60;;;;;;;;;;5015750;28;20239;-52
2024/03/08 05:13:20;;;;;;;18.17;13.47;;;;;;;;;;5027433;28;20634;-51
2024/03/08 05:15:52;;;;;;;15.43;12.17;;;;;;;;;;5022429;28;20608;-51
2024/03/08 05:18:18;;;;;;;16.57;12.30;;;;;;;;;;5016894;28;20183;-51
2024/03/08 05:20:45;;;;;;;17.03;12.03;;;;;;;;;;5017175;28;20241;-53
2024/03/08 05:23:11;;;;;;;17.83;13.53;;;;;;;;;;5018523;28;20182;-52
2024/03/08 05:25:37;;;;;;;16.80;13.10;;;;;;;;;;5014068;28;20201;-52
2024/03/08 05:28:04;;;;;;;15.97;12.57;;;;;;;;;;5017442;28;20214;-52
2024/03/08 05:30:31;;;;;;;19.50;13.23;;;;;;;;;;5014324;28;20616;-51
2024/03/08 05:32:57;;;;;;;16.27;12.97;;;;;;;;;;5023653;28;20185;-51
2024/03/08 05:35:24;;;;;;;16.40;13.33;;;;;;;;;;5018438;28;20612;-50
2024/03/08 05:37:50;;;;;;;16.10;12.57;;;;;;;;;;5018307;28;20252;-51
2024/03/08 05:40:16;;;;;;;13.37;11.50;;;;;;;;;;5023984;28;20237;-51
2024/03/08 05:42:42;;;;;;;15.77;12.50;;;;;;;;;;5023232;28;20201;-51
2024/03/08 05:45:10;;;;;;;16.07;12.23;;;;;;;;;;5017404;28;20642;-51
2024/03/08 05:47:36;;;;;;;17.00;13.50;;;;;;;;;;5019566;28;20645;-51
2024/03/08 05:50:04;;;;;;;18.40;14.17;;;;;;;;;;5020391;28;20492;-51
2024/03/08 05:52:30;;;;;;;18.10;13.93;;;;;;;;;;5015010;28;20178;-51
2024/03/08 05:54:56;;;;;;;18.23;14.20;;;;;;;;;;5017080;28;20189;-55
2024/03/08 05:57:23;;;;;;;18.23;13.83;;;;;;;;;;5016559;28;20854;-54
2024/03/08 05:59:49;;;;;;;20.20;14.53;;;;;;;;;;5013852;28;20190;-54
2024/03/08 06:02:19;;;;;;;20.17;15.47;;;;;;;;;;5023225;28;20409;-55
2024/03/08 06:04:45;;;;;;;21.60;15.53;;;;;;;;;;5015808;28;20196;-52
2024/03/08 06:07:12;;;;;;;17.10;13.27;;;;;;;;;;5022647;28;20436;-54
2024/03/08 06:09:38;;;;;;;17.80;13.97;;;;;;;;;;5018642;28;20485;-55
2024/03/08 06:12:06;;;;;;;17.10;13.37;;;;;;;;;;5017882;28;20545;-54
2024/03/08 06:14:32;;;;;;;20.30;14.43;;;;;;;;;;5016122;28;20243;-54
2024/03/08 06:16:58;;;;;;;18.97;13.93;;;;;;;;;;5016567;28;20634;-54
2024/03/08 06:19:24;;;;;;;18.87;14.13;;;;;;;;;;5015087;28;20192;-54
2024/03/08 06:21:50;;;;;;;20.37;14.27;;;;;;;;;;5015707;28;20302;-55
2024/03/08 06:24:17;;;;;;;18.97;14.30;;;;;;;;;;5024876;28;20296;-54
2024/03/08 06:26:43;;;;;;;19.27;14.50;;;;;;;;;;5018133;28;20537;-55
2024/03/08 06:29:09;;;;;;;20.47;14.97;;;;;;;;;;5016331;28;20193;-55
2024/03/08 06:31:38;;;;;;;19.67;14.57;;;;;;;;;;5018969;28;20176;-54
2024/03/08 06:34:07;;;;;;;18.53;14.13;;;;;;;;;;5014979;28;20197;-53
2024/03/08 06:36:33;;;;;;;18.90;14.17;;;;;;;;;;5023004;28;20618;-55
2024/03/08 06:38:59;;;;;;;18.50;14.50;;;;;;;;;;5013794;28;20166;-54
2024/03/08 06:41:26;;;;;;;20.40;14.47;;;;;;;;;;5020365;28;20224;-54
2024/03/08 06:43:57;;;;;;;21.40;14.30;;;;;;;;;;5023312;28;20212;-55
2024/03/08 06:46:23;;;;;;;17.23;13.90;;;;;;;;;;5018304;28;20269;-54
2024/03/08 06:48:49;;;;;;;18.73;15.10;;;;;;;;;;5014096;28;20278;-54
2024/03/08 06:51:15;;;;;;;19.87;15.07;;;;;;;;;;5012889;28;20173;-54
2024/03/08 06:53:41;;;;;;;19.50;14.33;;;;;;;;;;5023772;28;20186;-57
2024/03/08 06:56:07;;;;;;;19.27;14.37;;;;;;;;;;5008636;28;20208;-56
2024/03/08 06:58:33;;;;;;;17.60;14.07;;;;;;;;;;5012264;28;20178;-57
2024/03/08 07:01:03;;;;;;;21.87;15.17;;;;;;;;;;5017516;28;20193;-57
2024/03/08 07:03:30;;;;;;;17.23;13.87;;;;;;;;;;5017251;28;20178;-57
2024/03/08 07:05:59;;;;;;;18.67;14.00;;;;;;;;;;5010560;28;20204;-57
2024/03/08 07:08:26;;;;;;;19.13;15.50;;;;;;;;;;5009612;28;20537;-57
2024/03/08 07:10:53;;;;;;;19.30;15.47;;;;;;;;;;5007941;28;20193;-57
2024/03/08 07:13:19;;;;;;;19.20;15.07;;;;;;;;;;5016989;28;20196;-54
2024/03/08 07:15:45;;;;;;;20.17;13.97;;;;;;;;;;5024810;28;20174;-53
2024/03/08 07:18:14;;;;;;;17.57;14.17;;;;;;;;;;5025462;28;20711;-54
2024/03/08 07:20:41;;;;;;;18.00;14.70;;;;;;;;;;5026148;28;20226;-55
2024/03/08 07:23:08;;;;;;;18.50;14.17;;;;;;;;;;5026430;28;20530;-55
2024/03/08 07:25:35;;;;;;;17.63;14.40;;;;;;;;;;5016004;28;20234;-54
2024/03/08 07:28:01;;;;;;;18.67;14.67;;;;;;;;;;5021924;28;20285;-55
2024/03/08 07:33:12;;;;;;;19.90;14.13;;;;;;;;;;5014832;28;20628;-54
2024/03/08 07:35:38;;;;;;;18.73;12.93;;;;;;;;;;5019657;28;20597;-54
2024/03/08 07:38:05;;;;;;;19.57;15.00;;;;;;;;;;5022910;28;20185;-55
2024/03/08 07:40:32;;;;;;;17.60;13.80;;;;;;;;;;5022249;28;20641;-54
2024/03/08 07:42:58;;;;;;;21.43;15.43;;;;;;;;;;5018315;28;20669;-55
2024/03/08 07:45:25;;;;;;;18.17;14.20;;;;;;;;;;5015750;28;20174;-57
2024/03/08 07:47:51;;;;;;;21.63;14.50;;;;;;;;;;5024755;28;20185;-57
2024/03/08 07:50:17;;;;;;;18.27;14.50;;;;;;;;;;5023626;28;20184;-54
2024/03/08 07:52:43;;;;;;;17.77;14.10;;;;;;;;;;5016722;28;20647;-55
2024/03/08 07:55:10;;;;;;;18.87;14.80;;;;;;;;;;5015911;28;20181;-55
2024/03/08 07:57:38;;;;;;;17.90;14.23;;;;;;;;;;5016516;28;20196;-55
2024/03/08 08:00:07;;;;;;;18.93;15.27;;;;;;;;;;5020818;28;20224;-55
2024/03/08 08:02:34;;;;;;;18.30;14.17;;;;;;;;;;5014385;28;20514;-56
2024/03/08 08:05:00;;;;;;;19.10;15.20;;;;;;;;;;5010643;28;20353;-55
2024/03/08 08:07:27;;;;;;;19.20;14.83;;;;;;;;;;5010823;28;20602;-55
2024/03/08 08:09:53;;;;;;;17.60;14.47;;;;;;;;;;5026162;28;20254;-55
2024/03/08 08:12:20;;;;;;;18.90;14.80;;;;;;;;;;5010655;28;20229;-55
2024/03/08 08:14:46;;;;;;;18.97;14.30;;;;;;;;;;5016565;28;20158;-54
2024/03/08 08:17:12;;;;;;;17.93;14.10;;;;;;;;;;5018536;28;20166;-53
2024/03/08 08:19:39;;;;;;;17.30;13.43;;;;;;;;;;5017805;28;20540;-53
2024/03/08 08:22:05;;;;;;;20.00;14.30;;;;;;;;;;5014925;28;20312;-55
2024/03/08 08:24:31;;;;;;;17.20;13.07;;;;;;;;;;5012898;28;20555;-53
2024/03/08 08:26:57;;;;;;;18.03;14.13;;;;;;;;;;5006167;28;20197;-54
2024/03/08 08:29:23;;;;;;;18.80;13.13;;;;;;;;;;5010525;28;20634;-53
2024/03/08 08:31:49;;;;;;;16.33;12.27;;;;;;;;;;5014604;28;20182;-53
2024/03/08 08:34:16;;;;;;;17.47;12.43;;;;;;;;;;5018647;28;20185;-54
2024/03/08 08:36:42;;;;;;;17.73;13.77;;;;;;;;;;5021259;28;20182;-53
2024/03/08 08:39:13;;;;;;;15.97;12.87;;;;;;;;;;5008846;28;20202;-53
2024/03/08 08:41:41;;;;;;;18.77;13.87;;;;;;;;;;5009895;28;20529;-54
2024/03/08 08:44:09;;;;;;;14.63;11.50;;;;;;;;;;5017021;28;20253;-55
2024/03/08 08:46:37;;;;;;;14.03;11.60;;;;;;;;;;5014653;28;20182;-54
2024/03/08 08:49:03;;;;;;;16.63;12.90;;;;;;;;;;5013228;28;20207;-54
2024/03/08 08:51:29;;;;;;;14.40;11.73;;;;;;;;;;5012858;28;20175;-54
2024/03/08 08:53:56;;;;;;;16.63;12.73;;;;;;;;;;5021950;28;20161;-54
2024/03/08 08:56:22;;;;;;;15.50;11.87;;;;;;;;;;5017325;28;20269;-54
2024/03/08 08:58:49;;;;;;;13.93;12.40;;;;;;;;;;5016151;28;20205;-54
2024/03/08 09:01:16;;;;;;;14.13;11.90;;;;;;;;;;5014240;28;20170;-54
2024/03/08 09:03:46;;;;;;;14.63;13.07;;;;;;;;;;5020663;28;20190;-54
2024/03/08 09:06:13;;;;;;;15.23;12.50;;;;;;;;;;5021568;28;20170;-54
2024/03/08 09:08:39;;;;;;;14.73;13.00;;;;;;;;;;5021955;28;20670;-54
2024/03/08 09:11:05;;;;;;;13.83;12.00;;;;;;;;;;5010655;28;20205;-54
2024/03/08 09:13:31;;;;;;;15.53;13.17;;;;;;;;;;5024427;28;20178;-54
2024/03/08 09:15:57;;;;;;;15.77;12.97;;;;;;;;;;5021624;28;20170;-54
2024/03/08 09:18:24;;;;;;;15.05;12.95;;;;;;;;;;5020488;28;20422;-54
2024/03/08 09:20:50;;;;;;;18.53;12.83;;;;;;;;;;5015188;28;20546;-54
2024/03/08 09:23:17;;;;;;;15.53;13.13;;;;;;;;;;5018837;28;20174;-54
2024/03/08 09:25:43;;;;;;;13.70;12.13;;;;;;;;;;5025155;28;20178;-55
2024/03/08 09:28:12;;;;;;;17.30;13.17;;;;;;;;;;5019254;28;20635;-56
2024/03/08 09:30:38;;;;;;;17.47;13.43;;;;;;;;;;5019253;28;20236;-55
2024/03/08 09:33:04;;;;;;;15.20;12.80;;;;;;;;;;5020244;28;20209;-55
2024/03/08 09:35:30;;;;;;;16.10;13.33;;;;;;;;;;5026019;28;20185;-56
2024/03/08 09:37:56;;;;;;;17.53;13.40;;;;;;;;;;5020477;28;20645;-56
2024/03/08 09:40:24;;;;;;;17.57;13.47;;;;;;;;;;5017644;28;20174;-55
2024/03/08 09:42:50;;;;;;;16.77;13.00;;;;;;;;;;5019140;28;20540;-55
2024/03/08 09:45:17;;;;;;;15.70;13.53;;;;;;;;;;5018744;28;20174;-55
2024/03/08 09:47:44;;;;;;;16.63;13.60;;;;;;;;;;5020774;28;20202;-55
2024/03/08 09:50:12;;;;;;;15.20;13.00;;;;;;;;;;5022164;28;20251;-56
2024/03/08 09:52:41;;;;;;;15.70;12.80;;;;;;;;;;5022885;28;20625;-55
2024/03/08 09:55:07;;;;;;;15.30;12.93;;;;;;;;;;5015554;28;20187;-55
2024/03/08 09:57:34;;;;;;;16.33;14.27;;;;;;;;;;5017697;28;20646;-55
2024/03/08 10:00:00;;;;;;;14.63;12.40;;;;;;;;;;5020059;28;20651;-57
2024/03/08 10:02:26;;;;;;;16.97;13.90;;;;;;;;;;5017509;28;20183;-56
2024/03/08 10:04:53;;;;;;;17.43;13.60;;;;;;;;;;5012894;28;20656;-56
2024/03/08 10:07:19;;;;;;;17.17;14.33;;;;;;;;;;5012228;28;20306;-56
2024/03/08 10:09:50;;;;;;;14.90;12.93;;;;;;;;;;5017168;28;20209;-55
2024/03/08 10:12:19;;;;;;;16.13;13.33;;;;;;;;;;5022688;28;20236;-55
2024/03/08 10:14:46;;;;;;;15.90;13.07;;;;;;;;;;5015488;28;20182;-56
2024/03/08 10:17:12;;;;;;;16.53;12.73;;;;;;;;;;5019863;28;20171;-55
2024/03/08 10:19:38;;;;;;;17.47;13.80;;;;;;;;;;5019847;28;20230;-56
2024/03/08 10:22:06;;;;;;;14.53;12.97;;;;;;;;;;5022328;28;20245;-55
2024/03/08 10:24:33;;;;;;;14.07;11.37;;;;;;;;;;5015783;28;20579;-55
2024/03/08 10:27:01;;;;;;;15.63;13.53;;;;;;;;;;5014138;28;20213;-55
2024/03/08 10:29:28;;;;;;;17.90;13.53;;;;;;;;;;5023078;28;20288;-56
2024/03/08 10:31:55;;;;;;;15.73;11.43;;;;;;;;;;5013707;28;20760;-55
2024/03/08 10:34:23;;;;;;;11.60;10.10;;;;;;;;;;5021562;28;20177;-55
2024/03/08 10:36:50;;;;;;;12.30;9.13;;;;;;;;;;5019959;28;20177;-53
2024/03/08 10:39:25;;;;;;;11.60;8.73;;;;;;;;;;5024402;28;20177;-52
2024/03/08 10:41:59;;;;;;;9.97;8.70;;;;;;;;;;5007895;28;20167;-53
2024/03/08 10:44:31;;;;;;;10.80;8.87;;;;;;;;;;5024783;28;20185;-53
2024/03/08 10:47:09;;;;;;;11.20;8.33;;;;;;;;;;5020144;28;20192;-53
2024/03/08 10:49:50;;;;;;;9.70;7.87;;;;;;;;;;5028877;28;20230;-53
2024/03/08 10:52:17;;;;;;;8.97;8.07;;;;;;;;;;5024061;28;20177;-53
2024/03/08 10:54:44;;;;;;;9.13;7.47;;;;;;;;;;5027452;28;20594;-53
2024/03/08 10:57:12;;;;;;;8.57;7.63;;;;;;;;;;5026234;28;20284;-53
2024/03/08 10:59:39;;;;;;;9.17;8.10;;;;;;;;;;5028122;28;20178;-53
2024/03/08 11:02:05;;;;;;;11.23;8.67;;;;;;;;;;5019432;28;20676;-53
2024/03/08 11:04:33;;;;;;;10.40;8.33;;;;;;;;;;5024754;28;20212;-53
2024/03/08 11:07:07;;;;;;;9.37;7.23;;;;;;;;;;5018596;28;20257;-53
2024/03/08 11:09:33;;;;;;;8.83;7.40;;;;;;;;;;5009244;28;20289;-53
2024/03/08 11:12:18;;;;;;;8.43;7.27;;;;;;;;;;5018669;28;20240;-53
2024/03/08 11:14:46;;;;;;;10.43;7.90;;;;;;;;;;5008312;28;20193;-53
2024/03/08 11:17:13;;;;;;;9.53;8.40;;;;;;;;;;5016103;28;20528;-53
2024/03/08 11:19:46;;;;;;;8.27;7.43;;;;;;;;;;5013347;28;20197;-53
2024/03/08 11:22:23;;;;;;;8.73;6.83;;;;;;;;;;5026244;28;20696;-53
2024/03/08 11:24:49;;;;;;;9.23;7.93;;;;;;;;;;5023779;28;20521;-53
2024/03/08 11:27:15;;;;;;;7.83;6.73;;;;;;;;;;5024993;28;20186;-53
2024/03/08 11:29:41;;;;;;;8.73;7.20;;;;;;;;;;5028349;28;20190;-53
2024/03/08 11:32:17;;;;;;;7.60;6.50;;;;;;;;;;5013952;28;20651;-53
2024/03/08 11:34:44;;;;;;;9.40;6.97;;;;;;;;;;5026559;28;20519;-53
2024/03/08 11:37:30;;;;;;;8.70;7.00;;;;;;;;;;5021054;28;20785;-53
2024/03/08 11:39:58;;;;;;;9.47;7.60;;;;;;;;;;5015130;28;20582;-53
2024/03/08 11:42:26;;;;;;;8.93;6.90;;;;;;;;;;5019121;28;20190;-53
2024/03/08 11:44:52;;;;;;;7.57;6.77;;;;;;;;;;5019056;28;20205;-53
2024/03/08 11:47:18;;;;;;;7.67;6.87;;;;;;;;;;5019510;28;20186;-53
2024/03/08 11:49:44;;;;;;;7.70;6.70;;;;;;;;;;5023761;28;20228;-54
2024/03/08 11:52:14;;;;;;;9.33;6.57;;;;;;;;;;5014667;28;20209;-53
2024/03/08 11:54:40;;;;;;;7.77;6.77;;;;;;;;;;5023746;28;20591;-53
2024/03/08 11:57:07;;;;;;;7.30;6.60;;;;;;;;;;5023962;28;20182;-53
2024/03/08 11:59:33;;;;;;;8.77;6.50;;;;;;;;;;5010893;28;20179;-54
2024/03/08 12:02:03;;;;;;;8.90;7.27;;;;;;;;;;5015499;28;20186;-54
2024/03/08 12:04:30;;;;;;;8.13;6.93;;;;;;;;;;5022711;28;20256;-53
2024/03/08 12:06:56;;;;;;;8.13;7.33;;;;;;;;;;5022829;28;20698;-53
2024/03/08 12:09:22;;;;;;;9.10;6.47;;;;;;;;;;5021898;28;20198;-53
2024/03/08 12:11:50;;;;;;;9.50;7.63;;;;;;;;;;5009067;28;20172;-53
2024/03/08 12:14:17;;;;;;;7.50;6.73;;;;;;;;;;5013849;28;20171;-53
2024/03/08 12:16:43;;;;;;;7.23;6.53;;;;;;;;;;5013188;28;20185;-53
2024/03/08 12:19:10;;;;;;;7.30;6.60;;;;;;;;;;5014933;28;20485;-53
2024/03/08 12:21:36;;;;;;;7.93;7.03;;;;;;;;;;5009977;28;20307;-54
2024/03/08 12:24:16;;;;;;;8.00;6.60;;;;;;;;;;5020720;28;20513;-54
2024/03/08 12:26:42;;;;;;;7.93;7.13;;;;;;;;;;5013815;28;21609;-53
2024/03/08 12:29:28;;;;;;;7.20;6.37;;;;;;;;;;5020601;28;20649;-53
2024/03/08 12:31:55;;;;;;;6.63;5.93;;;;;;;;;;5017908;28;20199;-53
2024/03/08 12:34:21;;;;;;;8.90;7.10;;;;;;;;;;5016745;28;20604;-53
2024/03/08 12:36:53;;;;;;;7.27;6.53;;;;;;;;;;5022682;28;20271;-53
2024/03/08 12:39:22;;;;;;;7.40;6.30;;;;;;;;;;5022443;28;20714;-53
2024/03/08 12:41:51;;;;;;;7.33;6.60;;;;;;;;;;5020336;28;20189;-53
2024/03/08 12:44:17;;;;;;;7.87;6.77;;;;;;;;;;5016911;28;20705;-53
2024/03/08 12:46:45;;;;;;;6.70;6.00;;;;;;;;;;5017586;28;20232;-53
2024/03/08 12:49:12;;;;;;;7.63;6.83;;;;;;;;;;5021730;28;20258;-53
2024/03/08 12:51:38;;;;;;;6.90;6.20;;;;;;;;;;5023370;28;20197;-53
2024/03/08 12:54:07;;;;;;;8.23;7.30;;;;;;;;;;5027709;28;20344;-53
2024/03/08 12:56:33;;;;;;;7.63;6.93;;;;;;;;;;5028107;28;20594;-53
2024/03/08 12:59:00;;;;;;;7.67;6.87;;;;;;;;;;5027257;28;20727;-53
2024/03/08 13:01:26;;;;;;;7.97;7.17;;;;;;;;;;5023793;28;20288;-53
2024/03/08 13:03:52;;;;;;;12.80;7.43;;;;;;;;;;5022703;28;20555;-53
2024/03/08 13:06:21;;;;;;;8.10;6.67;;;;;;;;;;5019693;28;20182;-53
2024/03/08 13:08:48;;;;;;;7.90;6.30;;;;;;;;;;5013212;28;20301;-52
2024/03/08 13:11:14;;;;;;;8.15;7.30;;;;;;;;;;5016498;28;20475;-52
2024/03/08 13:13:40;;;;;;;7.80;7.03;;;;;;;;;;5020661;28;20205;-52
2024/03/08 13:16:12;;;;;;;6.73;5.97;;;;;;;;;;5022852;28;20181;-55
2024/03/08 13:18:38;;;;;;;8.40;6.57;;;;;;;;;;5019341;28;20231;-55
2024/03/08 13:21:09;;;;;;;9.10;6.93;;;;;;;;;;5024409;28;20533;-52
2024/03/08 13:23:39;;;;;;;8.53;6.10;;;;;;;;;;5028557;28;20240;-55
2024/03/08 13:26:05;;;;;;;7.23;6.53;;;;;;;;;;5012888;28;20174;-52
2024/03/08 13:28:36;;;;;;;7.07;6.37;;;;;;;;;;5018794;28;20694;-53
2024/03/08 13:31:02;;;;;;;8.37;6.60;;;;;;;;;;5022553;28;20260;-53
2024/03/08 13:33:29;;;;;;;7.37;6.67;;;;;;;;;;5020193;28;20246;-53
2024/03/08 13:35:55;;;;;;;6.97;6.27;;;;;;;;;;5028240;28;20225;-52
2024/03/08 13:38:21;;;;;;;7.73;6.20;;;;;;;;;;5015493;28;20174;-53
2024/03/08 13:40:48;;;;;;;7.90;5.93;;;;;;;;;;5011668;28;20525;-53
2024/03/08 13:43:14;;;;;;;10.17;6.63;;;;;;;;;;5026525;28;20723;-54
2024/03/08 13:45:41;;;;;;;7.00;5.70;;;;;;;;;;5026611;28;20337;-53
2024/03/08 13:48:07;;;;;;;7.93;6.63;;;;;;;;;;5021008;28;20174;-53
2024/03/08 13:50:34;;;;;;;7.23;6.20;;;;;;;;;;5029304;28;20694;-56
2024/03/08 13:53:00;;;;;;;7.17;6.30;;;;;;;;;;5026950;28;20952;-55
2024/03/08 13:55:26;;;;;;;7.60;6.33;;;;;;;;;;5025606;28;20192;-55
2024/03/08 13:57:52;;;;;;;6.80;6.10;;;;;;;;;;5024150;28;20186;-54
2024/03/08 14:00:23;;;;;;;9.20;6.90;;;;;;;;;;5022989;28;20170;-55
2024/03/08 14:02:49;;;;;;;7.57;6.63;;;;;;;;;;5021781;28;20644;-56
2024/03/08 14:05:16;;;;;;;8.93;6.30;;;;;;;;;;5022920;28;20279;-55
2024/03/08 14:07:42;;;;;;;7.40;6.70;;;;;;;;;;5024368;28;20231;-54
2024/03/08 14:10:09;;;;;;;7.00;6.13;;;;;;;;;;5028164;28;20197;-55
2024/03/08 14:12:35;;;;;;;6.77;6.03;;;;;;;;;;5022056;28;20638;-55
2024/03/08 14:15:01;;;;;;;7.43;6.67;;;;;;;;;;5025484;28;20196;-54
2024/03/08 14:17:30;;;;;;;10.67;6.97;;;;;;;;;;5023649;28;20189;-55
2024/03/08 14:19:56;;;;;;;7.83;6.60;;;;;;;;;;5023318;28;20293;-55
2024/03/08 14:22:23;;;;;;;7.40;6.63;;;;;;;;;;5017436;28;20203;-54
2024/03/08 14:24:49;;;;;;;6.83;6.13;;;;;;;;;;5026199;28;20273;-55